Time,TemperatureF,DewpointF,PressureIn,WindDirection,WindDirectionDegrees,WindSpeedMPH,WindSpeedGustMPH,Humidity,HourlyPrecipIn,Conditions,Clouds,dailyrainin,SoftwareType,DateUTC
2013-06-09 00:03:00,66.0,62.0,-100.00,SW,229,1.0,6.0,87,0.00,,,0.28,,2013-06-09 04:03:00,
2013-06-09 00:23:00,65.0,62.0,-100.00,WNW,302,1.0,3.0,89,0.00,,,0.28,,2013-06-09 04:23:00,
2013-06-09 00:33:00,65.0,62.0,-100.00,WNW,302,1.0,3.0,89,0.00,,,0.28,,2013-06-09 04:33:00,
2013-06-09 00:43:00,64.0,62.0,-100.00,WSW,248,1.0,3.0,91,0.00,,,0.28,,2013-06-09 04:43:00,
2013-06-09 00:53:00,64.0,62.0,-100.00,WSW,248,1.0,3.0,91,0.00,,,0.28,,2013-06-09 04:53:00,
2013-06-09 01:02:00,64.0,61.0,-100.00,West,261,1.0,2.0,92,0.00,,,0.28,,2013-06-09 05:02:00,
2013-06-09 01:12:00,64.0,61.0,-100.00,West,261,1.0,2.0,92,0.00,,,0.28,,2013-06-09 05:12:00,
2013-06-09 01:22:00,63.0,61.0,-100.00,SW,234,1.0,3.0,92,0.00,,,0.28,,2013-06-09 05:22:00,
2013-06-09 01:32:00,63.0,61.0,-100.00,SW,234,1.0,3.0,92,0.00,,,0.28,,2013-06-09 05:32:00,
2013-06-09 01:42:00,63.0,61.0,-100.00,SSE,155,1.0,2.0,93,0.00,,,0.28,,2013-06-09 05:42:00,
2013-06-09 01:52:00,63.0,61.0,-100.00,SSE,155,1.0,2.0,93,0.00,,,0.28,,2013-06-09 05:52:00,
2013-06-09 02:02:00,63.0,61.0,-100.00,WNW,287,0.0,2.0,93,0.00,,,0.26,,2013-06-09 06:02:00,
2013-06-09 02:12:00,63.0,61.0,-100.00,WNW,287,0.0,2.0,93,0.00,,,0.26,,2013-06-09 06:12:00,
2013-06-09 02:22:00,63.0,61.0,-100.00,West,277,0.0,2.0,93,0.00,,,0.26,,2013-06-09 06:22:00,
2013-06-09 02:32:00,63.0,61.0,-100.00,West,277,0.0,2.0,93,0.00,,,0.26,,2013-06-09 06:32:00,
2013-06-09 02:42:00,62.0,61.0,-100.00,NNW,346,1.0,3.0,94,0.00,,,0.26,,2013-06-09 06:42:00,
2013-06-09 02:52:00,62.0,61.0,-100.00,NNW,346,1.0,3.0,94,0.00,,,0.26,,2013-06-09 06:52:00,
2013-06-09 03:02:00,62.0,60.0,-100.00,NNE,21,1.0,3.0,94,0.00,,,0.26,,2013-06-09 07:02:00,
2013-06-09 03:12:00,62.0,60.0,-100.00,NNE,21,1.0,3.0,94,0.00,,,0.26,,2013-06-09 07:12:00,
2013-06-09 03:22:00,62.0,60.0,-100.00,NE,48,2.0,3.0,94,0.00,,,0.26,,2013-06-09 07:22:00,
2013-06-09 03:32:00,62.0,60.0,-100.00,NE,48,2.0,3.0,94,0.00,,,0.26,,2013-06-09 07:32:00,
2013-06-09 03:42:00,62.0,60.0,-100.00,ENE,58,1.0,2.0,94,0.00,,,0.26,,2013-06-09 07:42:00,
2013-06-09 03:53:00,62.0,60.0,-100.00,ENE,58,1.0,2.0,94,0.00,,,0.26,,2013-06-09 07:53:00,
2013-06-09 04:02:00,62.0,60.0,-100.00,ENE,58,1.0,2.0,94,0.00,,,0.26,,2013-06-09 08:02:00,
2013-06-09 04:22:00,62.0,60.0,-100.00,WSW,239,1.0,2.0,94,0.00,,,0.26,,2013-06-09 08:22:00,
2013-06-09 04:32:00,62.0,60.0,-100.00,WSW,239,1.0,2.0,94,0.00,,,0.26,,2013-06-09 08:32:00,
2013-06-09 04:42:00,62.0,60.0,-100.00,WSW,250,1.0,2.0,94,0.00,,,0.26,,2013-06-09 08:42:00,
2013-06-09 04:53:00,62.0,60.0,-100.00,WSW,250,1.0,2.0,94,0.00,,,0.26,,2013-06-09 08:53:00,
2013-06-09 05:02:00,62.0,60.0,-100.00,NNW,337,1.0,3.0,95,0.00,,,0.26,,2013-06-09 09:02:00,
2013-06-09 05:12:00,62.0,60.0,-100.00,NNW,337,1.0,3.0,95,0.00,,,0.26,,2013-06-09 09:12:00,
2013-06-09 05:22:00,62.0,60.0,-100.00,NE,47,2.0,3.0,95,0.00,,,0.26,,2013-06-09 09:22:00,
2013-06-09 05:33:00,62.0,60.0,-100.00,NE,47,2.0,3.0,95,0.00,,,0.26,,2013-06-09 09:33:00,
2013-06-09 05:43:00,62.0,60.0,-100.00,North,359,1.0,3.0,95,0.00,,,0.26,,2013-06-09 09:43:00,
2013-06-09 05:53:00,62.0,60.0,-100.00,North,359,1.0,3.0,95,0.00,,,0.26,,2013-06-09 09:53:00,
2013-06-09 06:03:00,62.0,61.0,-100.00,NE,48,1.0,3.0,95,0.00,,,0.26,,2013-06-09 10:03:00,
2013-06-09 06:13:00,62.0,61.0,-100.00,NE,48,1.0,3.0,95,0.00,,,0.26,,2013-06-09 10:13:00,
2013-06-09 06:23:00,62.0,61.0,-100.00,WSW,244,1.0,4.0,95,0.00,,,0.26,,2013-06-09 10:23:00,
2013-06-09 06:32:00,62.0,61.0,-100.00,WSW,244,1.0,4.0,95,0.00,,,0.26,,2013-06-09 10:32:00,
2013-06-09 06:43:00,62.0,61.0,-100.00,SW,229,1.0,3.0,95,0.00,,,0.24,,2013-06-09 10:43:00,
2013-06-09 06:52:00,62.0,61.0,-100.00,SW,229,1.0,3.0,95,0.00,,,0.24,,2013-06-09 10:52:00,
2013-06-09 07:02:00,63.0,61.0,-100.00,ENE,59,2.0,5.0,95,0.00,,,0.24,,2013-06-09 11:02:00,
2013-06-09 07:12:00,63.0,61.0,-100.00,ENE,59,2.0,5.0,95,0.00,,,0.24,,2013-06-09 11:12:00,
2013-06-09 07:22:00,63.0,61.0,-100.00,NE,56,2.0,4.0,95,0.00,,,0.24,,2013-06-09 11:22:00,
2013-06-09 07:32:00,63.0,61.0,-100.00,NE,56,2.0,4.0,95,0.00,,,0.24,,2013-06-09 11:32:00,
2013-06-09 07:42:00,63.0,62.0,-100.00,SSE,158,0.0,3.0,94,0.00,,,0.24,,2013-06-09 11:42:00,
2013-06-09 07:53:00,63.0,62.0,-100.00,SSE,158,0.0,3.0,94,0.00,,,0.24,,2013-06-09 11:53:00,
2013-06-09 08:03:00,64.0,62.0,-100.00,WSW,240,1.0,3.0,94,0.00,,,0.21,,2013-06-09 12:03:00,
2013-06-09 08:12:00,64.0,62.0,-100.00,WSW,240,1.0,3.0,94,0.00,,,0.21,,2013-06-09 12:12:00,
2013-06-09 08:22:00,65.0,63.0,-100.00,SSW,209,1.0,3.0,93,0.00,,,0.19,,2013-06-09 12:22:00,
2013-06-09 08:32:00,65.0,63.0,-100.00,SSW,209,1.0,3.0,93,0.00,,,0.19,,2013-06-09 12:32:00,
2013-06-09 08:42:00,65.0,63.0,-100.00,SW,219,2.0,4.0,91,0.00,,,0.17,,2013-06-09 12:42:00,
2013-06-09 08:53:00,65.0,63.0,-100.00,SW,219,2.0,4.0,91,0.00,,,0.17,,2013-06-09 12:53:00,
2013-06-09 09:02:00,67.0,63.0,-100.00,SSW,192,2.0,3.0,88,0.00,,,0.11,,2013-06-09 13:02:00,
2013-06-09 09:12:00,67.0,63.0,-100.00,SSW,192,2.0,3.0,88,0.00,,,0.11,,2013-06-09 13:12:00,
2013-06-09 09:22:00,70.0,65.0,-100.00,South,181,3.0,5.0,83,0.00,,,0.01,,2013-06-09 13:22:00,
2013-06-09 09:32:00,70.0,65.0,-100.00,South,181,3.0,5.0,83,0.00,,,0.01,,2013-06-09 13:32:00,
2013-06-09 09:42:00,73.0,64.0,-100.00,South,184,2.0,5.0,74,0.00,,,0.00,,2013-06-09 13:42:00,
2013-06-09 09:52:00,73.0,64.0,-100.00,South,184,2.0,5.0,74,0.00,,,0.00,,2013-06-09 13:52:00,
2013-06-09 10:02:00,73.0,64.0,-100.00,SSE,161,2.0,4.0,73,0.00,,,0.00,,2013-06-09 14:02:00,
2013-06-09 10:12:00,73.0,64.0,-100.00,SSE,161,2.0,4.0,73,0.00,,,0.00,,2013-06-09 14:12:00,
2013-06-09 10:22:00,74.0,65.0,-100.00,NE,44,1.0,5.0,72,0.00,,,0.00,,2013-06-09 14:22:00,
2013-06-09 10:32:00,74.0,65.0,-100.00,NE,44,1.0,5.0,72,0.00,,,0.00,,2013-06-09 14:32:00,
2013-06-09 10:43:00,74.0,64.0,-100.00,ENE,58,2.0,4.0,73,0.00,,,0.00,,2013-06-09 14:43:00,
2013-06-09 10:52:00,74.0,64.0,-100.00,ENE,58,2.0,4.0,73,0.00,,,0.00,,2013-06-09 14:52:00,
2013-06-09 11:02:00,74.0,64.0,-100.00,ENE,61,2.0,4.0,71,0.00,,,0.00,,2013-06-09 15:02:00,
2013-06-09 11:12:00,74.0,64.0,-100.00,ENE,61,2.0,4.0,71,0.00,,,0.00,,2013-06-09 15:12:00,
2013-06-09 11:22:00,75.0,65.0,-100.00,ESE,106,2.0,4.0,71,0.00,,,0.00,,2013-06-09 15:22:00,
2013-06-09 11:33:00,75.0,65.0,-100.00,ESE,106,2.0,4.0,71,0.00,,,0.00,,2013-06-09 15:33:00,
2013-06-09 11:43:00,80.0,66.0,-100.00,SSW,196,2.0,5.0,63,0.00,,,0.00,,2013-06-09 15:43:00,
2013-06-09 11:53:00,80.0,66.0,-100.00,SSW,196,2.0,5.0,63,0.00,,,0.00,,2013-06-09 15:53:00,
2013-06-09 12:03:00,83.0,66.0,-100.00,SW,236,1.0,4.0,56,0.00,,,0.00,,2013-06-09 16:03:00,
2013-06-09 12:13:00,83.0,66.0,-100.00,SW,236,1.0,4.0,56,0.00,,,0.00,,2013-06-09 16:13:00,
2013-06-09 12:23:00,81.0,67.0,-100.00,NE,52,2.0,4.0,62,0.00,,,0.00,,2013-06-09 16:23:00,
2013-06-09 12:33:00,81.0,67.0,-100.00,NE,52,2.0,4.0,62,0.00,,,0.00,,2013-06-09 16:33:00,
2013-06-09 12:42:00,84.0,66.0,-100.00,East,95,2.0,5.0,55,0.00,,,0.00,,2013-06-09 16:42:00,
2013-06-09 12:53:00,84.0,66.0,-100.00,East,95,2.0,5.0,55,0.00,,,0.00,,2013-06-09 16:53:00,
2013-06-09 13:03:00,83.0,68.0,-100.00,West,268,2.0,5.0,61,0.00,,,0.00,,2013-06-09 17:03:00,
2013-06-09 13:12:00,83.0,68.0,-100.00,West,268,2.0,5.0,61,0.00,,,0.00,,2013-06-09 17:12:00,
2013-06-09 13:22:00,84.0,66.0,-100.00,ENE,65,2.0,5.0,56,0.00,,,0.00,,2013-06-09 17:22:00,
2013-06-09 13:32:00,84.0,66.0,-100.00,ENE,65,2.0,5.0,56,0.00,,,0.00,,2013-06-09 17:32:00,
2013-06-09 13:42:00,85.0,64.0,-100.00,SSW,205,2.0,5.0,49,0.00,,,0.00,,2013-06-09 17:42:00,
2013-06-09 13:52:00,85.0,64.0,-100.00,SSW,205,2.0,5.0,49,0.00,,,0.00,,2013-06-09 17:52:00,
2013-06-09 14:03:00,85.0,65.0,-100.00,ESE,110,2.0,5.0,52,0.00,,,0.00,,2013-06-09 18:03:00,
2013-06-09 14:12:00,85.0,65.0,-100.00,ESE,110,2.0,5.0,52,0.00,,,0.00,,2013-06-09 18:12:00,
2013-06-09 14:22:00,83.0,67.0,-100.00,NNW,337,1.0,4.0,57,0.00,,,0.00,,2013-06-09 18:22:00,
2013-06-09 14:33:00,83.0,67.0,-100.00,NNW,337,1.0,4.0,57,0.00,,,0.00,,2013-06-09 18:33:00,
2013-06-09 14:42:00,84.0,64.0,-100.00,NE,41,2.0,4.0,50,0.00,,,0.00,,2013-06-09 18:42:00,
2013-06-09 14:52:00,84.0,64.0,-100.00,NE,41,2.0,4.0,50,0.00,,,0.00,,2013-06-09 18:52:00,
2013-06-09 15:02:00,80.0,66.0,-100.00,West,264,1.0,4.0,62,0.00,,,0.00,,2013-06-09 19:02:00,
2013-06-09 15:13:00,80.0,66.0,-100.00,West,264,1.0,4.0,62,0.00,,,0.00,,2013-06-09 19:13:00,
2013-06-09 15:22:00,78.0,69.0,-100.00,NW,326,1.0,3.0,73,0.00,,,0.00,,2013-06-09 19:22:00,
2013-06-09 15:32:00,78.0,69.0,-100.00,NW,326,1.0,3.0,73,0.00,,,0.00,,2013-06-09 19:32:00,
2013-06-09 15:42:00,81.0,71.0,-100.00,NW,320,0.0,2.0,72,0.00,,,0.00,,2013-06-09 19:42:00,
2013-06-09 15:52:00,81.0,71.0,-100.00,NW,320,0.0,2.0,72,0.00,,,0.00,,2013-06-09 19:52:00,
2013-06-09 16:03:00,79.0,68.0,-100.00,WNW,302,1.0,3.0,67,0.00,,,0.00,,2013-06-09 20:03:00,
2013-06-09 16:12:00,79.0,68.0,-100.00,WNW,302,1.0,3.0,67,0.00,,,0.00,,2013-06-09 20:12:00,
2013-06-09 16:22:00,78.0,67.0,-100.00,NW,323,1.0,2.0,69,0.00,,,0.00,,2013-06-09 20:22:00,
2013-06-09 16:42:00,83.0,64.0,-100.00,NE,44,6.0,10.0,53,0.00,,,0.00,,2013-06-09 20:42:00,
2013-06-09 16:52:00,83.0,64.0,-100.00,NE,44,6.0,10.0,53,0.00,,,0.00,,2013-06-09 20:52:00,
2013-06-09 17:03:00,83.0,64.0,-100.00,NE,35,5.0,10.0,53,0.00,,,0.00,,2013-06-09 21:03:00,
2013-06-09 17:12:00,83.0,64.0,-100.00,NE,35,5.0,10.0,53,0.00,,,0.00,,2013-06-09 21:12:00,
2013-06-09 17:22:00,85.0,64.0,-100.00,NE,41,6.0,11.0,51,0.00,,,0.00,,2013-06-09 21:22:00,
2013-06-09 17:33:00,85.0,64.0,-100.00,East,90,3.0,7.0,50,0.00,,,0.00,,2013-06-09 21:33:00,
2013-06-09 17:43:00,85.0,64.0,-100.00,East,90,3.0,7.0,50,0.00,,,0.00,,2013-06-09 21:43:00,
2013-06-09 17:53:00,85.0,64.0,-100.00,East,90,3.0,7.0,50,0.00,,,0.00,,2013-06-09 21:53:00,
2013-06-09 18:02:00,85.0,67.0,-100.00,ENE,73,4.0,7.0,54,0.00,,,0.00,,2013-06-09 22:02:00,
2013-06-09 18:13:00,85.0,67.0,-100.00,ENE,73,4.0,7.0,54,0.00,,,0.00,,2013-06-09 22:13:00,
2013-06-09 18:23:00,84.0,65.0,-100.00,ENE,64,4.0,8.0,53,0.00,,,0.00,,2013-06-09 22:23:00,
2013-06-09 18:33:00,84.0,65.0,-100.00,ENE,64,4.0,8.0,53,0.00,,,0.00,,2013-06-09 22:33:00,
2013-06-09 18:42:00,84.0,64.0,-100.00,East,90,4.0,8.0,51,0.00,,,0.00,,2013-06-09 22:42:00,
2013-06-09 18:52:00,84.0,64.0,-100.00,East,90,4.0,8.0,51,0.00,,,0.00,,2013-06-09 22:52:00,
2013-06-09 19:02:00,83.0,64.0,-100.00,NE,54,5.0,9.0,52,0.00,,,0.00,,2013-06-09 23:02:00,
2013-06-09 19:12:00,83.0,64.0,-100.00,NE,54,5.0,9.0,52,0.00,,,0.00,,2013-06-09 23:12:00,
2013-06-09 19:22:00,83.0,64.0,-100.00,ENE,62,5.0,11.0,53,0.00,,,0.00,,2013-06-09 23:22:00,
2013-06-09 19:32:00,83.0,64.0,-100.00,ENE,62,5.0,11.0,53,0.00,,,0.00,,2013-06-09 23:32:00,
2013-06-09 19:43:00,82.0,64.0,-100.00,NE,51,6.0,10.0,54,0.00,,,0.00,,2013-06-09 23:43:00,
2013-06-09 19:52:00,82.0,64.0,-100.00,NE,51,6.0,10.0,54,0.00,,,0.00,,2013-06-09 23:52:00,
2013-06-09 20:02:00,82.0,65.0,-100.00,ENE,64,4.0,8.0,58,0.00,,,0.00,,2013-06-10 00:02:00,
2013-06-09 20:13:00,82.0,65.0,-100.00,ENE,64,4.0,8.0,58,0.00,,,0.00,,2013-06-10 00:13:00,
2013-06-09 20:22:00,81.0,65.0,-100.00,NE,56,4.0,11.0,58,0.00,,,0.00,,2013-06-10 00:22:00,
2013-06-09 20:32:00,81.0,65.0,-100.00,NE,56,4.0,11.0,58,0.00,,,0.00,,2013-06-10 00:32:00,
2013-06-09 20:42:00,81.0,65.0,-100.00,ENE,69,4.0,10.0,59,0.00,,,0.00,,2013-06-10 00:42:00,
2013-06-09 20:52:00,81.0,65.0,-100.00,ENE,69,4.0,10.0,59,0.00,,,0.00,,2013-06-10 00:52:00,
2013-06-09 21:03:00,81.0,66.0,-100.00,ENE,66,5.0,10.0,60,0.00,,,0.00,,2013-06-10 01:03:00,
2013-06-09 21:12:00,81.0,66.0,-100.00,ENE,66,5.0,10.0,60,0.00,,,0.00,,2013-06-10 01:12:00,
2013-06-09 21:22:00,78.0,66.0,-100.00,East,80,5.0,17.0,68,0.03,,,0.00,,2013-06-10 01:22:00,
2013-06-09 21:32:00,78.0,66.0,-100.00,East,80,5.0,17.0,68,0.03,,,0.00,,2013-06-10 01:32:00,
2013-06-09 21:43:00,71.0,68.0,-100.00,NW,311,2.0,4.0,91,0.04,,,0.07,,2013-06-10 01:43:00,
2013-06-09 21:52:00,71.0,68.0,-100.00,NW,311,2.0,4.0,91,0.04,,,0.07,,2013-06-10 01:52:00,
2013-06-09 22:02:00,71.0,68.0,-100.00,WNW,302,1.0,3.0,92,0.00,,,0.08,,2013-06-10 02:02:00,
2013-06-09 22:12:00,71.0,68.0,-100.00,WNW,302,1.0,3.0,92,0.00,,,0.08,,2013-06-10 02:12:00,
2013-06-09 22:22:00,71.0,69.0,-100.00,NNW,337,2.0,5.0,93,0.24,,,0.14,,2013-06-10 02:22:00,
2013-06-09 22:32:00,71.0,69.0,-100.00,NNW,337,2.0,5.0,93,0.24,,,0.14,,2013-06-10 02:32:00,
2013-06-09 22:42:00,69.0,67.0,-100.00,WNW,285,2.0,6.0,92,0.01,,,0.17,,2013-06-10 02:42:00,
2013-06-09 22:52:00,68.0,66.0,-100.00,WNW,289,1.0,4.0,93,0.03,,,0.18,,2013-06-10 02:52:00,
2013-06-09 23:02:00,68.0,66.0,-100.00,WNW,289,1.0,4.0,93,0.03,,,0.18,,2013-06-10 03:02:00,
2013-06-09 23:12:00,68.0,66.0,-100.00,WNW,289,1.0,4.0,93,0.03,,,0.18,,2013-06-10 03:12:00,
2013-06-09 23:22:00,68.0,66.0,-100.00,WNW,287,1.0,3.0,93,0.00,,,0.18,,2013-06-10 03:22:00,
2013-06-09 23:33:00,68.0,66.0,-100.00,WNW,287,1.0,3.0,93,0.00,,,0.18,,2013-06-10 03:33:00,
2013-06-09 23:43:00,68.0,66.0,-100.00,WSW,247,1.0,3.0,93,0.00,,,0.18,,2013-06-10 03:43:00,
2013-06-09 23:53:00,68.0,66.0,-100.00,WSW,247,1.0,3.0,93,0.00,,,0.18,,2013-06-10 03:53:00,